createdAt,value
2023-02-25T00:09:59.041Z,203.80
2023-02-25T00:20:09.869Z,209.33
2023-02-25T00:30:16.051Z,212.93
2023-02-25T00:40:21.655Z,212.83
2023-02-25T00:50:25.732Z,205.53
2023-02-25T01:00:40.524Z,214.87
2023-02-25T01:10:50.538Z,213.10
2023-02-25T01:20:57.213Z,207.07
2023-02-25T01:31:01.269Z,219.57
2023-02-25T01:41:06.694Z,218.87
2023-02-25T01:51:14.149Z,219.10
2023-02-25T02:01:23.748Z,218.30
2023-02-25T02:11:27.792Z,209.63
2023-02-25T02:21:54.770Z,215.83
2023-02-25T02:32:26.108Z,211.43
2023-02-25T02:42:40.268Z,211.53
2023-02-25T02:52:52.732Z,213.10
2023-02-25T03:03:02.719Z,209.70
2023-02-25T03:13:08.368Z,211.43
2023-02-25T03:23:17.356Z,212.47
2023-02-25T03:33:31.471Z,206.10
2023-02-25T03:43:41.234Z,209.67
2023-02-25T03:53:46.484Z,208.83
2023-02-25T04:03:55.978Z,219.33
2023-02-25T04:14:01.505Z,209.33
2023-02-25T04:24:07.237Z,217.73
2023-02-25T04:34:12.550Z,223.83
2023-02-25T04:44:17.516Z,215.97
2023-02-25T04:54:23.327Z,217.23
2023-02-25T05:04:27.196Z,215.73
2023-02-25T05:14:33.887Z,210.90
2023-02-25T05:24:37.660Z,207.07
2023-02-25T05:34:42.862Z,206.87
2023-02-25T05:44:46.480Z,207.90
2023-02-25T05:54:51.678Z,208.50
2023-02-25T06:04:56.013Z,211.73
2023-02-25T06:15:01.383Z,213.30
2023-02-25T06:25:05.611Z,215.47
2023-02-25T06:35:11.522Z,208.13
2023-02-25T06:45:15.395Z,204.70
2023-02-25T06:55:20.705Z,214.33
2023-02-25T07:05:24.469Z,215.30
2023-02-25T07:15:29.699Z,220.40
2023-02-25T07:25:34.173Z,218.50
2023-02-25T07:35:39.400Z,214.90
2023-02-25T07:45:43.234Z,218.27
2023-02-25T07:55:48.541Z,215.03
2023-02-25T08:05:54.446Z,211.33
2023-02-25T08:15:59.482Z,209.27
2023-02-25T08:26:04.057Z,212.83
2023-02-25T08:36:11.306Z,211.87
2023-02-25T08:46:15.146Z,216.20
2023-02-25T08:56:22.066Z,210.30
2023-02-25T09:06:29.315Z,211.23
2023-02-25T09:16:34.624Z,207.93
2023-02-25T09:26:39.009Z,205.83
2023-02-25T09:36:44.770Z,211.10
2023-02-25T09:46:53.910Z,211.30
2023-02-25T09:57:03.045Z,205.93
2023-02-25T10:07:17.690Z,210.77
2023-02-25T10:34:27.199Z,234.77
2023-02-25T10:44:48.134Z,232.00
2023-02-25T10:55:00.296Z,240.23
2023-02-25T11:05:09.136Z,233.13
2023-02-25T11:15:45.811Z,230.00
2023-02-25T11:25:54.120Z,226.60
2023-02-25T11:36:07.141Z,229.47
2023-02-25T11:46:30.707Z,222.70
2023-02-25T11:56:40.861Z,226.80
2023-02-25T12:07:26.627Z,223.23
2023-02-25T12:18:30.920Z,231.27
2023-02-25T12:29:10.768Z,220.77
2023-02-25T12:40:08.377Z,222.10
2023-02-25T12:51:01.885Z,228.40
2023-02-25T13:01:40.627Z,217.23
2023-02-25T13:12:11.884Z,229.87
2023-02-25T13:22:45.248Z,231.53
2023-02-25T13:33:14.418Z,211.27
2023-02-25T13:44:09.143Z,212.87
2023-02-25T13:54:58.712Z,217.70
2023-02-25T14:05:49.532Z,230.10
2023-02-25T14:16:17.539Z,224.03
2023-02-25T14:26:42.800Z,228.83
2023-02-25T14:37:29.038Z,223.10
2023-02-25T14:47:46.627Z,225.13
2023-02-25T14:58:40.228Z,218.63
2023-02-25T15:09:19.604Z,228.80
2023-02-25T15:19:56.972Z,216.30
2023-02-25T15:30:15.568Z,217.50
2023-02-25T15:41:00.359Z,215.10
2023-02-25T15:51:42.857Z,225.77
2023-02-25T16:01:53.666Z,220.53
2023-02-25T16:12:08.990Z,219.77
2023-02-25T16:22:20.212Z,215.60
2023-02-25T16:32:55.099Z,207.17
2023-02-25T16:43:18.049Z,224.83
2023-02-25T16:53:32.053Z,216.67
2023-02-25T17:03:59.186Z,222.33
2023-02-25T17:14:15.196Z,231.43
2023-02-25T17:24:33.989Z,222.97
2023-02-25T17:34:43.107Z,237.87
2023-02-25T17:44:48.061Z,213.30
2023-02-25T17:55:03.316Z,225.37
2023-02-25T18:05:24.035Z,220.30
2023-02-25T18:15:41.060Z,218.47
2023-02-25T18:25:49.754Z,219.97
2023-02-25T18:36:02.082Z,225.23
2023-02-25T18:46:07.342Z,231.03
2023-02-25T18:56:19.406Z,213.73
2023-02-25T19:06:29.537Z,223.90
2023-02-25T19:16:39.788Z,217.93
2023-02-25T19:26:47.288Z,209.80
2023-02-25T19:36:58.502Z,215.47
2023-02-25T19:47:09.875Z,228.37
2023-02-25T19:57:19.783Z,214.93
2023-02-25T20:07:30.248Z,225.23
2023-02-25T20:17:39.809Z,223.40
2023-02-25T20:27:47.002Z,221.07
2023-02-25T20:38:20.285Z,227.50
2023-02-25T20:48:38.481Z,226.83
2023-02-25T20:58:53.652Z,225.10
2023-02-25T21:09:00.787Z,212.97
2023-02-25T21:19:08.946Z,217.97
2023-02-25T21:29:20.480Z,223.50
2023-02-25T21:39:28.406Z,218.67
2023-02-25T21:49:36.992Z,209.80
2023-02-25T21:59:50.163Z,217.93
2023-02-25T22:09:57.802Z,224.47
2023-02-25T22:20:07.081Z,235.60
2023-02-25T22:30:13.407Z,225.83
2023-02-25T22:40:31.913Z,233.80
2023-02-25T22:50:49.350Z,233.85
2023-02-25T23:00:54.504Z,201.43
2023-02-25T23:11:08.424Z,198.33
2023-02-25T23:21:19.260Z,198.33
2023-02-25T23:31:25.434Z,200.10
2023-02-25T23:41:30.983Z,198.90
2023-02-25T23:51:35.619Z,197.90
